Time;durP1;ratioP1;P1;durP2;ratioP2;P2;SDS_P1;SDS_P2;PMS_P1;PMS_P2;Temp;Humidity;BMP_temperature;BMP_pressure;BME280_temperature;BME280_humidity;BME280_pressure;Samples;Min_cycle;Max_cycle;Signal;HPM_P1;HPM_P2
2020/12/17 00:00:21;;;;;;;7.10;4.15;;;;;;;8.65;100.00;101274.09;4952577;28;20031;-69
2020/12/17 00:02:47;;;;;;;6.32;4.35;;;;;;;8.70;100.00;101275.34;4952008;28;20031;-68
2020/12/17 00:05:13;;;;;;;8.82;4.60;;;;;;;8.72;100.00;101276.03;4952192;28;20098;-68
2020/12/17 00:07:40;;;;;;;9.73;4.15;;;;;;;8.72;100.00;101272.50;4951277;28;20038;-69
2020/12/17 00:10:06;;;;;;;8.32;4.57;;;;;;;8.69;100.00;101270.13;4951291;28;20030;-68
2020/12/17 00:12:36;;;;;;;6.10;4.35;;;;;;;8.71;100.00;101269.00;4951735;28;20049;-68
2020/12/17 00:15:04;;;;;;;8.38;4.55;;;;;;;8.70;100.00;101261.97;4951721;28;20063;-68
2020/12/17 00:17:30;;;;;;;12.55;4.30;;;;;;;8.79;100.00;101279.00;4951157;28;20071;-68
2020/12/17 00:19:55;;;;;;;7.78;4.38;;;;;;;8.79;100.00;101269.13;4951861;28;20496;-68
2020/12/17 00:22:21;;;;;;;8.02;4.45;;;;;;;8.80;100.00;101264.63;4951497;28;20110;-68
2020/12/17 00:24:46;;;;;;;6.07;4.00;;;;;;;8.82;100.00;101268.81;4951035;28;20117;-68
2020/12/17 00:27:12;;;;;;;7.50;3.65;;;;;;;8.87;100.00;101271.06;4950866;28;20042;-69
2020/12/17 00:29:37;;;;;;;10.05;4.00;;;;;;;8.88;100.00;101271.91;4951757;28;20440;-68
2020/12/17 00:32:03;;;;;;;11.63;4.05;;;;;;;8.87;100.00;101270.22;4951235;28;20106;-68
2020/12/17 00:34:29;;;;;;;6.32;4.30;;;;;;;8.86;100.00;101269.38;4966121;28;20489;-68
2020/12/17 00:36:54;;;;;;;9.32;4.25;;;;;;;8.84;100.00;101271.38;4950166;28;20042;-69
2020/12/17 00:39:20;;;;;;;8.00;4.10;;;;;;;8.86;100.00;101268.53;4950919;28;20031;-68
2020/12/17 00:41:50;;;;;;;6.97;3.90;;;;;;;8.85;100.00;101264.19;4951149;29;20031;-68
2020/12/17 00:44:15;;;;;;;6.78;4.40;;;;;;;8.87;100.00;101260.38;4951320;28;20125;-68
2020/12/17 00:46:41;;;;;;;8.20;4.20;;;;;;;8.84;100.00;101260.66;4950499;28;20126;-68
2020/12/17 00:49:07;;;;;;;7.15;4.70;;;;;;;8.81;100.00;101259.13;4952149;28;20030;-69
2020/12/17 00:51:33;;;;;;;10.10;4.18;;;;;;;8.81;100.00;101266.28;4952230;28;20027;-68
2020/12/17 00:53:58;;;;;;;7.55;4.75;;;;;;;8.81;100.00;101259.13;4950979;28;20034;-68
2020/12/17 00:56:24;;;;;;;8.68;4.45;;;;;;;8.84;100.00;101262.50;4951869;28;20043;-69
2020/12/17 00:58:49;;;;;;;10.52;4.47;;;;;;;8.85;100.00;101267.69;4951321;28;20046;-68
2020/12/17 01:01:15;;;;;;;10.45;4.45;;;;;;;8.83;100.00;101261.63;4951791;28;20122;-69
2020/12/17 01:03:40;;;;;;;8.48;4.13;;;;;;;8.86;100.00;101263.19;4951288;28;20031;-69
2020/12/17 01:06:07;;;;;;;6.75;4.53;;;;;;;8.79;100.00;101257.59;4951753;28;20050;-68
2020/12/17 01:08:34;;;;;;;8.38;5.00;;;;;;;8.74;100.00;101257.19;4951232;28;20036;-69
2020/12/17 01:11:00;;;;;;;7.30;4.65;;;;;;;8.73;100.00;101250.13;4951700;28;20046;-68
2020/12/17 01:13:26;;;;;;;10.15;5.20;;;;;;;8.71;100.00;101252.94;4951303;28;20509;-69
2020/12/17 01:15:51;;;;;;;8.93;4.95;;;;;;;8.78;100.00;101256.72;4951720;28;20042;-69
2020/12/17 01:18:17;;;;;;;10.60;5.20;;;;;;;8.75;100.00;101258.84;4938058;28;20038;-69
2020/12/17 01:20:43;;;;;;;6.72;4.45;;;;;;;8.71;100.00;101258.28;4951764;28;20031;-69
2020/12/17 01:23:09;;;;;;;11.57;5.38;;;;;;;8.70;100.00;101253.09;4951117;28;20039;-69
2020/12/17 01:29:23;;;;;;;10.65;5.18;;;;;;;8.62;100.00;101258.31;4950119;29;20480;-69
2020/12/17 01:35:35;;;;;;;10.17;5.37;;;;;;;8.59;100.00;101248.75;4942447;29;20480;-69
2020/12/17 01:38:01;;;;;;;9.55;5.03;;;;;;;8.57;100.00;101256.91;4949574;28;20039;-69
2020/12/17 01:40:27;;;;;;;7.25;4.72;;;;;;;8.63;100.00;101260.00;4951258;28;20043;-69
2020/12/17 01:42:52;;;;;;;8.68;4.95;;;;;;;8.67;100.00;101261.41;4950693;28;20381;-69
2020/12/17 01:45:18;;;;;;;14.60;5.53;;;;;;;8.65;100.00;101266.06;4951207;28;20507;-69
2020/12/17 01:47:47;;;;;;;12.07;5.45;;;;;;;8.64;100.00;101264.38;4950545;28;20415;-69
2020/12/17 01:50:13;;;;;;;12.85;5.68;;;;;;;8.65;100.00;101266.06;4950344;28;20039;-69
2020/12/17 01:52:39;;;;;;;13.60;5.53;;;;;;;8.64;100.00;101273.25;4951208;28;20396;-68
2020/12/17 01:55:04;;;;;;;10.60;5.50;;;;;;;8.64;100.00;101272.41;4950669;28;20488;-69
2020/12/17 01:57:34;;;;;;;12.23;5.68;;;;;;;8.68;100.00;101266.59;4950562;28;20031;-69
2020/12/17 02:00:05;;;;;;;15.65;5.57;;;;;;;8.70;100.00;101269.16;4950546;28;20042;-69
2020/12/17 02:02:32;;;;;;;10.70;5.10;;;;;;;8.71;100.00;101262.81;4950867;28;20535;-69
2020/12/17 02:04:59;;;;;;;14.77;5.20;;;;;;;8.74;100.00;101273.22;4951110;28;20035;-69
2020/12/17 02:07:25;;;;;;;9.25;5.57;;;;;;;8.76;100.00;101272.06;4951102;28;20027;-69
2020/12/17 02:10:11;;;;;;;11.37;5.50;;;;;;;8.78;100.00;101263.91;4950422;28;20039;-68
2020/12/17 02:12:54;;;;;;;12.35;6.00;;;;;;;8.77;100.00;101267.56;4951226;28;20035;-68
2020/12/17 02:15:21;;;;;;;11.18;5.68;;;;;;;8.76;100.00;101258.69;4949957;28;20035;-68
2020/12/17 02:18:06;;;;;;;9.35;5.97;;;;;;;8.76;100.00;101266.72;4936630;29;20119;-68
2020/12/17 02:20:32;;;;;;;14.40;6.55;;;;;;;8.73;100.00;101267.00;4950589;28;20118;-68
2020/12/17 02:23:18;;;;;;;12.70;6.90;;;;;;;8.72;100.00;101272.50;4950143;29;20039;-69
2020/12/17 02:26:05;;;;;;;12.52;6.57;;;;;;;8.79;100.00;101266.44;4950025;29;20126;-68
2020/12/17 02:28:50;;;;;;;11.00;6.68;;;;;;;8.76;100.00;101263.22;4950062;29;20035;-68
2020/12/17 02:31:36;;;;;;;12.50;6.97;;;;;;;8.75;100.00;101261.53;4949403;29;20118;-68
2020/12/17 02:34:02;;;;;;;13.50;6.45;;;;;;;8.73;100.00;101266.16;4950003;28;20171;-68
2020/12/17 02:36:28;;;;;;;11.88;6.78;;;;;;;8.74;100.00;101270.56;4949918;28;20031;-69
2020/12/17 02:38:53;;;;;;;13.95;6.75;;;;;;;8.78;100.00;101262.06;4950492;28;20066;-69
2020/12/17 02:41:19;;;;;;;11.05;6.88;;;;;;;8.72;100.00;101259.97;4950353;28;20031;-69
2020/12/17 02:43:46;;;;;;;13.13;7.28;;;;;;;8.71;100.00;101260.13;4950576;28;20043;-69
2020/12/17 02:46:12;;;;;;;20.33;6.60;;;;;;;8.76;100.00;101263.22;4950169;28;20039;-69
2020/12/17 02:48:38;;;;;;;13.43;7.03;;;;;;;8.77;100.00;101268.41;4950160;28;20035;-69
2020/12/17 02:51:04;;;;;;;12.60;7.15;;;;;;;8.76;100.00;101273.91;4954051;28;20400;-69
2020/12/17 02:53:30;;;;;;;12.40;6.75;;;;;;;8.80;100.00;101276.16;4954522;28;20054;-69
2020/12/17 02:55:56;;;;;;;14.15;7.38;;;;;;;8.85;100.00;101278.41;4953737;28;20027;-68
2020/12/17 02:58:22;;;;;;;14.68;6.30;;;;;;;8.77;100.00;101281.78;4953991;28;20038;-68
2020/12/17 03:00:48;;;;;;;12.95;7.03;;;;;;;8.85;100.00;101289.09;4953389;28;20043;-69
2020/12/17 03:03:14;;;;;;;14.23;7.00;;;;;;;8.80;100.00;101278.84;4953883;28;20027;-69
2020/12/17 03:05:40;;;;;;;15.75;6.90;;;;;;;8.80;100.00;101278.00;4954130;28;20042;-69
2020/12/17 03:08:06;;;;;;;16.80;7.07;;;;;;;8.78;100.00;101282.63;4953850;28;20035;-68
2020/12/17 03:10:31;;;;;;;15.20;7.05;;;;;;;8.75;100.00;101282.94;4949052;28;20028;-68
2020/12/17 03:12:58;;;;;;;15.23;7.57;;;;;;;8.75;100.00;101288.28;4947147;29;20062;-69
2020/12/17 03:15:24;;;;;;;13.85;7.47;;;;;;;8.76;100.00;101290.81;4953831;28;20065;-68
2020/12/17 03:17:50;;;;;;;16.40;7.30;;;;;;;8.78;100.00;101286.13;4940962;28;20038;-69
2020/12/17 03:20:16;;;;;;;10.40;7.05;;;;;;;8.83;100.00;101291.06;4953118;29;20039;-68
2020/12/17 03:22:41;;;;;;;13.27;7.50;;;;;;;8.81;100.00;101293.88;4954368;28;20043;-69
2020/12/17 03:25:09;;;;;;;14.35;6.72;;;;;;;8.79;100.00;101297.72;4953755;28;20058;-69
2020/12/17 03:27:35;;;;;;;16.45;7.13;;;;;;;8.79;100.00;101300.38;4951987;28;20476;-69
2020/12/17 03:30:04;;;;;;;16.60;7.65;;;;;;;8.86;100.00;101297.97;4951092;28;20035;-69
2020/12/17 03:32:30;;;;;;;14.00;6.93;;;;;;;8.89;100.00;101305.72;4953532;28;20146;-69
2020/12/17 03:34:55;;;;;;;12.35;7.10;;;;;;;8.89;100.00;101308.41;4952905;28;20126;-69
2020/12/17 03:37:21;;;;;;;11.65;6.20;;;;;;;8.86;100.00;101309.50;4952886;28;20412;-69
2020/12/17 03:39:46;;;;;;;12.05;7.10;;;;;;;8.83;100.00;101320.50;4948704;29;20093;-68
2020/12/17 03:42:12;;;;;;;14.90;7.05;;;;;;;8.89;100.00;101322.63;4946599;28;20114;-69
2020/12/17 03:44:37;;;;;;;14.57;7.00;;;;;;;8.92;100.00;101321.47;4953289;28;20038;-69
2020/12/17 03:47:03;;;;;;;10.43;6.95;;;;;;;8.93;100.00;101332.03;4952700;28;20035;-69
2020/12/17 03:49:28;;;;;;;13.60;6.72;;;;;;;8.93;100.00;101332.03;4953418;28;20038;-68
2020/12/17 03:51:54;;;;;;;13.98;7.05;;;;;;;8.95;100.00;101337.25;4953357;28;20484;-68
2020/12/17 03:54:20;;;;;;;13.80;7.03;;;;;;;8.95;100.00;101332.75;4953318;28;20424;-68
2020/12/17 03:56:45;;;;;;;16.38;7.10;;;;;;;8.91;100.00;101344.72;4952400;28;20031;-68
2020/12/17 03:59:11;;;;;;;14.00;7.57;;;;;;;8.90;100.00;101344.88;4953073;28;20039;-68
2020/12/17 04:01:36;;;;;;;18.38;7.20;;;;;;;8.87;100.00;101348.66;4951454;28;20490;-68
2020/12/17 04:04:02;;;;;;;13.13;6.75;;;;;;;8.87;100.00;101348.66;4952906;28;20456;-68
2020/12/17 04:06:27;;;;;;;12.98;7.25;;;;;;;8.86;100.00;101349.66;4952307;28;20082;-68
2020/12/17 04:08:53;;;;;;;11.68;6.97;;;;;;;8.86;100.00;101354.16;4953157;28;20027;-68
2020/12/17 04:11:18;;;;;;;16.90;7.97;;;;;;;8.87;100.00;101359.34;4952404;28;20485;-68
2020/12/17 04:13:44;;;;;;;14.70;8.07;;;;;;;8.79;100.00;101359.25;4952970;28;20145;-68
2020/12/17 04:16:10;;;;;;;13.77;7.65;;;;;;;8.78;100.00;101368.22;4951712;28;20053;-68
2020/12/17 04:18:35;;;;;;;16.27;8.30;;;;;;;8.78;100.00;101366.41;4939562;28;20130;-68
2020/12/17 04:21:01;;;;;;;12.60;7.55;;;;;;;8.74;100.00;101364.19;4952607;28;20039;-68
2020/12/17 04:23:27;;;;;;;12.85;7.93;;;;;;;8.73;100.00;101365.97;4967347;28;20031;-69
2020/12/17 04:25:53;;;;;;;14.38;8.15;;;;;;;8.75;100.00;101361.34;4952602;28;20027;-68
2020/12/17 04:28:19;;;;;;;15.30;7.75;;;;;;;8.71;100.00;101362.63;4951926;28;20027;-68
2020/12/17 04:30:44;;;;;;;13.23;7.97;;;;;;;8.68;100.00;101364.72;4951824;28;20024;-69
2020/12/17 04:33:10;;;;;;;14.90;8.15;;;;;;;8.67;100.00;101369.22;4952012;28;20023;-68
2020/12/17 04:35:35;;;;;;;12.77;7.70;;;;;;;8.66;100.00;101372.06;4952285;28;20127;-68
2020/12/17 04:38:01;;;;;;;14.27;8.15;;;;;;;8.70;100.00;101373.47;4951597;28;20050;-68
2020/12/17 04:40:27;;;;;;;16.80;8.40;;;;;;;8.55;100.00;101371.22;4952205;28;20122;-68
2020/12/17 04:42:52;;;;;;;13.60;7.35;;;;;;;8.52;100.00;101366.13;4952063;28;20038;-68
2020/12/17 04:45:19;;;;;;;15.38;8.25;;;;;;;8.47;100.00;101359.50;4951576;28;20035;-69
2020/12/17 04:47:46;;;;;;;14.10;7.78;;;;;;;8.40;100.00;101356.56;4951505;28;20480;-69
2020/12/17 04:50:14;;;;;;;16.45;8.98;;;;;;;8.37;100.00;101353.31;4952339;28;20500;-68
2020/12/17 04:52:42;;;;;;;16.38;8.73;;;;;;;8.34;100.00;101359.78;4951587;28;20039;-69
2020/12/17 04:55:09;;;;;;;15.90;8.38;;;;;;;8.32;100.00;101367.06;4952498;28;20061;-68
2020/12/17 04:57:43;;;;;;;20.20;8.65;;;;;;;8.32;100.00;101391.97;4950804;28;20086;-69
2020/12/17 05:00:09;;;;;;;17.95;9.25;;;;;;;8.35;100.00;101398.03;4952442;28;20066;-69
2020/12/17 05:02:35;;;;;;;17.95;8.95;;;;;;;8.31;100.00;101400.13;4951319;28;20500;-69
2020/12/17 05:05:01;;;;;;;16.02;9.02;;;;;;;8.26;100.00;101397.88;4967138;28;20451;-69
2020/12/17 05:07:27;;;;;;;20.02;8.82;;;;;;;8.29;100.00;101402.13;4951117;28;20038;-69
2020/12/17 05:09:53;;;;;;;16.27;8.30;;;;;;;8.29;100.00;101413.66;4951834;28;20027;-69
2020/12/17 05:12:19;;;;;;;14.13;7.88;;;;;;;8.28;100.00;101416.44;4950617;28;20381;-69
2020/12/17 05:14:45;;;;;;;16.02;8.68;;;;;;;8.24;100.00;101423.91;4952023;28;20031;-68
2020/12/17 05:17:11;;;;;;;14.43;7.90;;;;;;;8.21;100.00;101423.31;4943863;29;20039;-69
2020/12/17 05:19:37;;;;;;;16.02;7.43;;;;;;;8.22;100.00;101427.69;4945530;29;20100;-69
2020/12/17 05:22:05;;;;;;;13.40;8.00;;;;;;;8.17;100.00;101436.09;4951309;28;20035;-68
2020/12/17 05:24:31;;;;;;;13.48;7.05;;;;;;;8.18;100.00;101440.50;4951361;28;20035;-69
2020/12/17 05:26:59;;;;;;;16.08;8.52;;;;;;;8.20;100.00;101443.03;4950234;28;20046;-69
2020/12/17 05:29:25;;;;;;;14.57;8.57;;;;;;;8.15;100.00;101447.94;4951458;28;20043;-69
2020/12/17 05:31:51;;;;;;;14.07;7.90;;;;;;;8.12;100.00;101442.84;4951071;28;20050;-69
2020/12/17 05:34:17;;;;;;;11.77;6.88;;;;;;;8.08;100.00;101455.63;4951042;28;20049;-69
2020/12/17 05:36:45;;;;;;;13.77;7.32;;;;;;;8.05;100.00;101459.44;4950210;28;20078;-69
2020/12/17 05:39:13;;;;;;;12.27;6.50;;;;;;;8.12;100.00;101464.22;4949818;29;20093;-69
2020/12/17 05:41:41;;;;;;;12.57;6.68;;;;;;;8.06;100.00;101457.59;4950745;28;20138;-68
2020/12/17 05:44:09;;;;;;;17.63;6.47;;;;;;;8.13;100.00;101455.22;4949886;29;20039;-69
2020/12/17 05:46:37;;;;;;;14.00;5.57;;;;;;;8.11;100.00;101457.19;4950699;28;20031;-69
2020/12/17 05:49:09;;;;;;;8.50;5.13;;;;;;;8.00;100.00;101467.00;4950751;28;20515;-69
2020/12/17 05:51:35;;;;;;;14.95;6.40;;;;;;;7.96;100.00;101470.06;4950904;28;20020;-68
2020/12/17 05:54:01;;;;;;;10.35;5.60;;;;;;;7.89;100.00;101475.13;4950401;28;20042;-69
2020/12/17 05:56:28;;;;;;;12.65;5.40;;;;;;;7.88;100.00;101483.25;4965678;28;20094;-69
2020/12/17 05:59:01;;;;;;;10.23;5.15;;;;;;;7.83;100.00;101474.78;4950487;28;20039;-69
2020/12/17 06:01:27;;;;;;;10.70;4.38;;;;;;;7.78;100.00;101476.06;4950897;28;20114;-69
2020/12/17 06:03:53;;;;;;;7.00;4.35;;;;;;;7.75;100.00;101488.81;4950658;28;20607;-69
2020/12/17 06:06:19;;;;;;;10.05;5.03;;;;;;;7.75;100.00;101496.84;4950755;28;20034;-69
2020/12/17 06:08:50;;;;;;;8.82;4.63;;;;;;;7.67;100.00;101499.31;4949608;28;20395;-69
2020/12/17 06:11:17;;;;;;;9.75;5.22;;;;;;;7.63;100.00;101503.22;4950397;28;20095;-69
2020/12/17 06:13:43;;;;;;;8.93;5.10;;;;;;;7.55;100.00;101501.22;4948761;29;20110;-69
2020/12/17 06:16:10;;;;;;;9.40;4.55;;;;;;;7.51;100.00;101505.97;4950102;28;20031;-69
2020/12/17 06:18:51;;;;;;;8.77;5.22;;;;;;;7.48;100.00;101503.56;4949312;28;20034;-69
2020/12/17 06:21:17;;;;;;;9.48;4.50;;;;;;;7.47;100.00;101517.03;4950018;29;20055;-69
2020/12/17 06:23:42;;;;;;;7.18;4.53;;;;;;;7.44;100.00;101526.16;4949401;28;20031;-69
2020/12/17 06:26:10;;;;;;;9.00;4.80;;;;;;;7.40;100.00;101527.38;4949923;28;20035;-69
2020/12/17 06:28:36;;;;;;;10.15;4.45;;;;;;;7.39;100.00;101525.69;4949480;28;20539;-69
2020/12/17 06:31:03;;;;;;;8.25;4.75;;;;;;;7.34;100.00;101533.25;4949999;28;20035;-69
2020/12/17 06:33:29;;;;;;;9.27;4.05;;;;;;;7.26;100.00;101538.38;4949352;28;20563;-68
2020/12/17 06:35:58;;;;;;;9.20;4.95;;;;;;;7.21;100.00;101540.56;4949732;28;20038;-69
2020/12/17 06:38:26;;;;;;;11.05;4.40;;;;;;;7.20;100.00;101545.06;4949568;28;20031;-69
2020/12/17 06:40:52;;;;;;;8.80;3.80;;;;;;;7.16;100.00;101540.09;4949649;28;20039;-68
2020/12/17 06:43:31;;;;;;;6.10;3.33;;;;;;;7.18;100.00;101540.84;4949911;28;20039;-69
2020/12/17 06:45:59;;;;;;;7.72;3.25;;;;;;;7.16;100.00;101532.94;4949479;28;20114;-69
2020/12/17 06:48:40;;;;;;;6.43;3.47;;;;;;;7.18;100.00;101540.84;4949483;28;20031;-68
2020/12/17 06:51:30;;;;;;;5.55;2.70;;;;;;;7.19;100.00;101547.88;4963948;28;20027;-69
2020/12/17 06:53:56;;;;;;;4.80;2.60;;;;;;;7.22;100.00;101539.59;4949619;28;20404;-70
2020/12/17 06:56:22;;;;;;;5.50;2.75;;;;;;;7.19;100.00;101553.19;4949411;28;20035;-69
2020/12/17 06:58:48;;;;;;;6.30;2.85;;;;;;;7.21;100.00;101551.25;4949339;28;20042;-70
2020/12/17 07:01:25;;;;;;;5.97;2.70;;;;;;;7.17;100.00;101565.81;4949609;28;20102;-68
2020/12/17 07:03:51;;;;;;;4.75;2.85;;;;;;;7.10;100.00;101567.31;4949628;28;20086;-69
2020/12/17 07:06:18;;;;;;;9.18;3.00;;;;;;;7.08;100.00;101575.44;4949364;28;20496;-69
2020/12/17 07:08:46;;;;;;;12.00;3.40;;;;;;;7.12;100.00;101584.88;4949459;28;20035;-69
2020/12/17 07:11:37;;;;;;;8.50;3.30;;;;;;;7.07;100.00;101581.72;4949295;28;20852;-69
2020/12/17 07:14:06;;;;;;;11.10;3.67;;;;;;;7.06;100.00;101584.53;4949418;28;20035;-68
2020/12/17 07:16:33;;;;;;;9.15;3.42;;;;;;;7.09;100.00;101595.81;4947358;28;20118;-69
2020/12/17 07:19:19;;;;;;;12.52;4.78;;;;;;;7.13;100.00;101602.59;4939234;29;20085;-70
2020/12/17 07:21:44;;;;;;;9.20;3.80;;;;;;;7.20;100.00;101605.59;4949636;28;20051;-69
2020/12/17 07:24:24;;;;;;;11.52;3.83;;;;;;;7.26;100.00;101607.75;4949548;28;20043;-69
2020/12/17 07:26:52;;;;;;;10.10;4.03;;;;;;;7.39;100.00;101610.28;4949450;28;20125;-68
2020/12/17 07:29:27;;;;;;;11.85;3.80;;;;;;;7.38;100.00;101616.56;4949117;28;20113;-69
2020/12/17 07:31:53;;;;;;;;;;;;;;;7.39;100.00;101624.47;4949766;28;20024;-69
2020/12/17 07:34:18;;;;;;;11.70;4.50;;;;;;;7.46;100.00;101627.47;4949048;28;20327;-69
2020/12/17 07:36:46;;;;;;;10.52;4.22;;;;;;;7.47;100.00;101630.00;4950415;28;20065;-71
2020/12/17 07:39:12;;;;;;;10.02;5.20;;;;;;;7.48;100.00;101645.06;4952840;28;20110;-69
2020/12/17 07:41:38;;;;;;;9.88;4.55;;;;;;;7.46;100.00;101643.47;4952784;28;20532;-69
2020/12/17 07:44:03;;;;;;;12.30;5.38;;;;;;;7.45;100.00;101650.66;4952558;28;20039;-69
2020/12/17 07:46:39;;;;;;;15.68;5.75;;;;;;;7.45;100.00;101656.00;4952377;28;20106;-69
2020/12/17 07:49:28;;;;;;;17.75;5.38;;;;;;;7.57;100.00;101661.28;4967301;28;20035;-69
2020/12/17 07:51:54;;;;;;;12.68;4.82;;;;;;;7.69;100.00;101662.97;4935470;29;20405;-69
2020/12/17 07:54:21;;;;;;;12.18;4.55;;;;;;;7.63;100.00;101660.78;4952440;28;20050;-69
2020/12/17 07:56:49;;;;;;;16.98;5.38;;;;;;;7.55;100.00;101664.09;4952242;28;20039;-69
2020/12/17 07:59:14;;;;;;;12.73;5.30;;;;;;;7.49;100.00;101661.94;4952027;28;20035;-69
2020/12/17 08:01:40;;;;;;;14.90;5.28;;;;;;;7.37;100.00;101661.09;4952458;28;20174;-69
2020/12/17 08:04:07;;;;;;;11.48;4.97;;;;;;;7.38;100.00;101660.16;4952220;28;20035;-69
2020/12/17 08:06:34;;;;;;;15.05;6.30;;;;;;;7.31;100.00;101664.28;4951080;29;20058;-70
2020/12/17 08:09:02;;;;;;;16.63;5.97;;;;;;;7.34;100.00;101666.72;4952041;28;20031;-69
2020/12/17 08:11:28;;;;;;;14.05;6.05;;;;;;;7.43;100.00;101676.63;4951853;28;20118;-69
2020/12/17 08:13:59;;;;;;;19.05;6.82;;;;;;;7.49;100.00;101678.81;4967307;28;20134;-69
2020/12/17 08:16:24;;;;;;;17.73;6.72;;;;;;;7.59;100.00;101678.88;4949420;29;20039;-69
2020/12/17 08:18:53;;;;;;;20.40;8.18;;;;;;;7.70;100.00;101684.19;4940389;29;20035;-69
2020/12/17 08:21:20;;;;;;;18.27;8.45;;;;;;;7.79;100.00;101686.09;4951729;28;20078;-70
2020/12/17 08:23:46;;;;;;;17.48;6.50;;;;;;;7.86;100.00;101686.41;4952466;28;20041;-69
2020/12/17 08:26:17;;;;;;;20.85;7.40;;;;;;;7.98;100.00;101692.56;4950684;28;20035;-70
2020/12/17 08:28:43;;;;;;;16.92;6.60;;;;;;;8.07;100.00;101688.28;4952228;28;20035;-69
2020/12/17 08:31:13;;;;;;;14.70;6.45;;;;;;;8.12;100.00;101696.75;4951599;28;20038;-70
2020/12/17 08:33:43;;;;;;;15.00;6.25;;;;;;;8.20;100.00;101700.47;4952044;28;20369;-69
2020/12/17 08:36:11;;;;;;;15.10;6.13;;;;;;;8.26;100.00;101701.78;4950654;28;20031;-70
2020/12/17 08:38:38;;;;;;;17.85;6.90;;;;;;;8.28;100.00;101702.47;4951301;28;20032;-70
2020/12/17 08:41:05;;;;;;;16.10;6.40;;;;;;;8.33;100.00;101705.59;4951199;28;20031;-69
2020/12/17 08:43:45;;;;;;;19.23;6.18;;;;;;;8.31;100.00;101710.25;4951998;28;20033;-70
2020/12/17 08:46:14;;;;;;;16.58;5.97;;;;;;;8.29;100.00;101714.91;4950977;28;20035;-70
2020/12/17 08:48:40;;;;;;;23.08;6.82;;;;;;;8.34;100.00;101722.53;4951867;28;20546;-70
2020/12/17 08:51:10;;;;;;;16.10;5.90;;;;;;;8.35;100.00;101733.06;4950892;28;20027;-70
2020/12/17 08:53:40;;;;;;;14.30;5.88;;;;;;;8.39;100.00;101734.56;4952113;28;20090;-69
2020/12/17 08:56:11;;;;;;;20.38;6.22;;;;;;;8.59;100.00;101734.69;4951739;28;20035;-70
2020/12/17 08:58:51;;;;;;;14.32;6.28;;;;;;;8.61;100.00;101738.91;4951202;28;20053;-70
2020/12/17 09:01:23;;;;;;;16.88;6.43;;;;;;;8.59;100.00;101751.56;4949416;29;20038;-69
2020/12/17 09:03:50;;;;;;;12.35;5.88;;;;;;;8.57;100.00;101757.03;4951438;28;20043;-69
2020/12/17 09:06:15;;;;;;;18.33;5.35;;;;;;;8.54;100.00;101751.13;4950739;28;20031;-69
2020/12/17 09:08:42;;;;;;;12.40;5.95;;;;;;;8.51;100.00;101762.06;4951342;28;20035;-69
2020/12/17 09:11:27;;;;;;;15.68;5.97;;;;;;;8.46;100.00;101765.13;4951171;28;20443;-69
2020/12/17 09:13:58;;;;;;;17.00;6.32;;;;;;;8.41;100.00;101772.69;4951314;28;20035;-69
2020/12/17 09:16:24;;;;;;;16.05;5.60;;;;;;;8.36;100.00;101782.06;4965100;28;20039;-70
2020/12/17 09:18:57;;;;;;;16.80;5.40;;;;;;;8.49;100.00;101780.09;4951320;28;20525;-69
2020/12/17 09:21:23;;;;;;;14.55;5.93;;;;;;;8.48;100.00;101784.59;4950370;28;20039;-70
2020/12/17 09:23:56;;;;;;;15.95;6.10;;;;;;;8.51;100.00;101781.63;4951218;28;20135;-69
2020/12/17 09:26:21;;;;;;;13.85;5.38;;;;;;;8.53;100.00;101786.84;4949568;28;20039;-69
2020/12/17 09:28:49;;;;;;;12.80;4.85;;;;;;;8.55;100.00;101787.56;4951228;28;20043;-70
2020/12/17 09:31:19;;;;;;;14.80;5.57;;;;;;;8.59;100.00;101790.84;4950681;28;20054;-69
2020/12/17 09:33:45;;;;;;;15.05;4.90;;;;;;;8.58;100.00;101800.66;4950758;28;20432;-69
2020/12/17 09:36:18;;;;;;;13.98;5.32;;;;;;;8.67;100.00;101799.06;4949823;28;20089;-69
2020/12/17 09:38:43;;;;;;;14.73;5.03;;;;;;;8.76;100.00;101800.94;4950689;28;20031;-69
2020/12/17 09:41:09;;;;;;;13.15;4.60;;;;;;;8.76;100.00;101803.63;4950216;28;20038;-69
2020/12/17 09:43:46;;;;;;;19.95;5.35;;;;;;;8.92;100.00;101800.47;4950780;28;20395;-69
2020/12/17 09:46:11;;;;;;;13.25;4.82;;;;;;;8.94;100.00;101804.72;4950200;28;20107;-69
2020/12/17 09:48:37;;;;;;;16.27;5.25;;;;;;;8.97;100.00;101812.47;4950520;28;20031;-69
2020/12/17 09:51:06;;;;;;;17.95;4.38;;;;;;;9.04;100.00;101821.69;4950345;28;20029;-69
2020/12/17 09:53:35;;;;;;;10.43;3.90;;;;;;;9.06;100.00;101822.41;4950663;28;20094;-69
2020/12/17 09:56:00;;;;;;;12.68;4.20;;;;;;;9.13;100.00;101827.22;4950082;28;20039;-69
2020/12/17 09:58:26;;;;;;;13.68;4.50;;;;;;;9.11;100.00;101831.84;4949667;28;20046;-69
2020/12/17 10:00:52;;;;;;;20.65;4.38;;;;;;;9.16;100.00;101838.50;4949780;28;20027;-69
2020/12/17 10:03:18;;;;;;;18.33;5.25;;;;;;;9.11;100.00;101826.50;4950530;28;20512;-70
2020/12/17 10:05:43;;;;;;;14.98;3.97;;;;;;;9.03;100.00;101848.56;4950032;28;20515;-70
2020/12/17 10:08:09;;;;;;;10.13;3.70;;;;;;;9.08;100.00;101835.63;4949547;28;20031;-70
2020/12/17 10:10:35;;;;;;;8.63;3.47;;;;;;;9.09;100.00;101842.72;4949648;28;20039;-70
2020/12/17 10:13:02;;;;;;;19.05;4.05;;;;;;;9.02;100.00;101842.38;4950466;28;20042;-69
2020/12/17 10:15:28;;;;;;;9.90;3.58;;;;;;;8.98;100.00;101840.94;4949954;28;20039;-69
2020/12/17 10:17:55;;;;;;;14.43;3.85;;;;;;;9.03;100.00;101846.72;4952047;28;20103;-70
2020/12/17 10:20:21;;;;;;;8.05;3.83;;;;;;;9.06;100.00;101849.16;4950135;29;20146;-70
2020/12/17 10:22:47;;;;;;;12.07;3.88;;;;;;;9.11;100.00;101846.09;4965040;28;20400;-70
2020/12/17 10:25:15;;;;;;;13.13;3.80;;;;;;;9.17;100.00;101850.91;4950414;28;20061;-69
2020/12/17 10:27:41;;;;;;;14.40;3.20;;;;;;;9.32;100.00;101857.59;4949534;28;20102;-69
2020/12/17 10:30:07;;;;;;;10.45;3.15;;;;;;;9.51;100.00;101856.84;4950230;28;20130;-69
2020/12/17 10:32:34;;;;;;;8.90;3.38;;;;;;;9.57;100.00;101867.03;4950019;28;20462;-70
2020/12/17 10:35:00;;;;;;;9.70;3.75;;;;;;;9.60;100.00;101855.22;4950208;28;20122;-71
2020/12/17 10:37:26;;;;;;;15.35;3.95;;;;;;;9.66;100.00;101861.84;4948677;28;20070;-70
2020/12/17 10:39:53;;;;;;;17.30;4.00;;;;;;;9.65;100.00;101865.53;4950238;28;20059;-70
2020/12/17 10:42:20;;;;;;;8.55;4.05;;;;;;;9.62;100.00;101858.59;4949982;29;20074;-70
2020/12/17 10:44:46;;;;;;;10.45;3.15;;;;;;;9.68;100.00;101876.78;4950437;28;20039;-70
2020/12/17 10:47:11;;;;;;;11.05;3.92;;;;;;;9.82;100.00;101873.75;4950130;28;20035;-70
2020/12/17 10:49:37;;;;;;;10.07;4.43;;;;;;;9.86;100.00;101872.50;4950334;28;20054;-70
2020/12/17 10:52:02;;;;;;;5.72;2.80;;;;;;;9.83;100.00;101878.13;4949749;28;20039;-70
2020/12/17 10:54:28;;;;;;;8.63;3.00;;;;;;;9.80;100.00;101875.72;4950039;28;20027;-69
2020/12/17 10:56:54;;;;;;;13.70;3.80;;;;;;;9.73;100.00;101874.56;4949648;28;20035;-69
2020/12/17 10:59:19;;;;;;;9.38;3.53;;;;;;;9.82;100.00;101878.25;4949992;28;20038;-69
2020/12/17 11:01:45;;;;;;;15.57;4.00;;;;;;;9.87;100.00;101884.06;4949913;28;20028;-69
2020/12/17 11:04:10;;;;;;;15.55;3.42;;;;;;;9.87;100.00;101884.06;4950054;28;20046;-70
2020/12/17 11:06:36;;;;;;;13.98;3.50;;;;;;;9.80;100.00;101886.44;4948217;29;20579;-70
2020/12/17 11:09:02;;;;;;;12.15;2.95;;;;;;;9.82;100.00;101883.63;4949517;28;20046;-69
2020/12/17 11:11:28;;;;;;;8.63;2.97;;;;;;;9.91;99.18;101881.97;4952995;28;20106;-69
2020/12/17 11:13:53;;;;;;;12.63;3.40;;;;;;;9.94;100.00;101887.91;4953124;28;20130;-69
2020/12/17 11:16:19;;;;;;;8.77;2.97;;;;;;;10.12;98.94;101886.22;4953290;28;20038;-69
2020/12/17 11:18:45;;;;;;;11.50;3.45;;;;;;;10.20;97.92;101887.41;4953523;28;20023;-70
2020/12/17 11:21:11;;;;;;;8.25;3.25;;;;;;;10.23;96.85;101895.16;4953009;28;20079;-70
2020/12/17 11:23:37;;;;;;;13.52;3.22;;;;;;;10.17;98.43;101891.19;4953093;28;20143;-70
2020/12/17 11:26:03;;;;;;;9.85;2.90;;;;;;;10.18;98.08;101890.19;4953599;28;20035;-70
2020/12/17 11:28:29;;;;;;;12.65;3.10;;;;;;;10.17;97.28;101890.34;4951484;29;20392;-70